sensor_id;sensor_type;location;lat;lon;timestamp;temperature;humidity
78212;SHT31;67490;52.086;5.122;2023-05-07T00:00:24;19.16;69.74
78212;SHT31;67490;52.086;5.122;2023-05-07T00:03:10;19.21;69.67
78212;SHT31;67490;52.086;5.122;2023-05-07T00:05:55;19.17;69.29
78212;SHT31;67490;52.086;5.122;2023-05-07T00:08:40;19.16;69.32
78212;SHT31;67490;52.086;5.122;2023-05-07T00:11:24;19.13;69.74
78212;SHT31;67490;52.086;5.122;2023-05-07T00:14:09;19.10;69.78
78212;SHT31;67490;52.086;5.122;2023-05-07T00:16:55;19.09;69.86
78212;SHT31;67490;52.086;5.122;2023-05-07T00:19:41;19.11;69.84
78212;SHT31;67490;52.086;5.122;2023-05-07T00:22:25;19.17;69.63
78212;SHT31;67490;52.086;5.122;2023-05-07T00:25:10;19.11;69.82
78212;SHT31;67490;52.086;5.122;2023-05-07T00:27:55;19.07;69.63
78212;SHT31;67490;52.086;5.122;2023-05-07T00:30:39;19.09;69.58
78212;SHT31;67490;52.086;5.122;2023-05-07T00:33:24;19.11;69.93
78212;SHT31;67490;52.086;5.122;2023-05-07T00:36:12;19.04;69.49
78212;SHT31;67490;52.086;5.122;2023-05-07T00:38:59;19.04;69.51
78212;SHT31;67490;52.086;5.122;2023-05-07T00:41:44;19.03;69.72
78212;SHT31;67490;52.086;5.122;2023-05-07T00:44:28;19.06;69.49
78212;SHT31;67490;52.086;5.122;2023-05-07T00:47:14;19.09;69.41
78212;SHT31;67490;52.086;5.122;2023-05-07T00:49:59;19.04;70.08
78212;SHT31;67490;52.086;5.122;2023-05-07T00:52:44;18.88;70.21
78212;SHT31;67490;52.086;5.122;2023-05-07T00:55:29;18.73;70.76
78212;SHT31;67490;52.086;5.122;2023-05-07T00:58:14;18.73;71.11
78212;SHT31;67490;52.086;5.122;2023-05-07T01:00:59;18.75;70.79
78212;SHT31;67490;52.086;5.122;2023-05-07T01:03:43;18.76;70.42
78212;SHT31;67490;52.086;5.122;2023-05-07T01:06:29;18.69;70.47
78212;SHT31;67490;52.086;5.122;2023-05-07T01:09:17;18.68;71.13
78212;SHT31;67490;52.086;5.122;2023-05-07T01:12:03;18.69;70.98
78212;SHT31;67490;52.086;5.122;2023-05-07T01:14:48;18.73;70.49
78212;SHT31;67490;52.086;5.122;2023-05-07T01:17:34;18.75;70.52
78212;SHT31;67490;52.086;5.122;2023-05-07T01:20:20;18.76;70.76
78212;SHT31;67490;52.086;5.122;2023-05-07T01:23:07;18.81;71.43
78212;SHT31;67490;52.086;5.122;2023-05-07T01:25:51;18.77;71.27
78212;SHT31;67490;52.086;5.122;2023-05-07T01:28:36;18.73;72.47
78212;SHT31;67490;52.086;5.122;2023-05-07T01:31:23;18.69;72.02
78212;SHT31;67490;52.086;5.122;2023-05-07T01:34:11;18.66;72.47
78212;SHT31;67490;52.086;5.122;2023-05-07T01:36:59;18.66;72.77
78212;SHT31;67490;52.086;5.122;2023-05-07T01:39:46;18.62;72.41
78212;SHT31;67490;52.086;5.122;2023-05-07T01:42:31;18.62;72.38
78212;SHT31;67490;52.086;5.122;2023-05-07T01:45:16;18.55;72.43
78212;SHT31;67490;52.086;5.122;2023-05-07T01:48:02;18.48;72.43
78212;SHT31;67490;52.086;5.122;2023-05-07T01:50:47;18.40;72.78
78212;SHT31;67490;52.086;5.122;2023-05-07T01:53:35;18.37;73.19
78212;SHT31;67490;52.086;5.122;2023-05-07T01:56:22;18.34;73.12
78212;SHT31;67490;52.086;5.122;2023-05-07T01:59:06;18.34;73.29
78212;SHT31;67490;52.086;5.122;2023-05-07T02:01:51;18.32;73.07
78212;SHT31;67490;52.086;5.122;2023-05-07T02:04:36;18.25;73.42
78212;SHT31;67490;52.086;5.122;2023-05-07T02:07:20;18.28;73.89
78212;SHT31;67490;52.086;5.122;2023-05-07T02:10:05;18.35;73.50
78212;SHT31;67490;52.086;5.122;2023-05-07T02:12:51;18.37;73.64
78212;SHT31;67490;52.086;5.122;2023-05-07T02:15:35;18.44;72.72
78212;SHT31;67490;52.086;5.122;2023-05-07T02:18:20;18.42;73.58
78212;SHT31;67490;52.086;5.122;2023-05-07T02:21:04;18.44;73.44
78212;SHT31;67490;52.086;5.122;2023-05-07T02:23:49;18.47;72.98
78212;SHT31;67490;52.086;5.122;2023-05-07T02:26:33;18.47;72.39
78212;SHT31;67490;52.086;5.122;2023-05-07T02:29:19;18.44;72.45
78212;SHT31;67490;52.086;5.122;2023-05-07T02:32:04;18.45;72.09
78212;SHT31;67490;52.086;5.122;2023-05-07T02:34:50;18.52;72.39
78212;SHT31;67490;52.086;5.122;2023-05-07T02:37:35;18.58;72.32
78212;SHT31;67490;52.086;5.122;2023-05-07T02:40:19;18.59;72.25
78212;SHT31;67490;52.086;5.122;2023-05-07T02:43:04;18.59;72.30
78212;SHT31;67490;52.086;5.122;2023-05-07T02:46:00;18.65;72.08
78212;SHT31;67490;52.086;5.122;2023-05-07T02:48:44;18.61;71.06
78212;SHT31;67490;52.086;5.122;2023-05-07T02:51:30;18.51;71.36
78212;SHT31;67490;52.086;5.122;2023-05-07T02:54:15;18.45;72.45
78212;SHT31;67490;52.086;5.122;2023-05-07T02:56:59;18.48;72.58
78212;SHT31;67490;52.086;5.122;2023-05-07T02:59:45;18.45;72.29
78212;SHT31;67490;52.086;5.122;2023-05-07T03:02:31;18.53;72.14
78212;SHT31;67490;52.086;5.122;2023-05-07T03:05:16;18.52;72.25
78212;SHT31;67490;52.086;5.122;2023-05-07T03:08:01;18.58;72.52
78212;SHT31;67490;52.086;5.122;2023-05-07T03:10:46;18.58;71.95
78212;SHT31;67490;52.086;5.122;2023-05-07T03:13:30;18.59;71.75
78212;SHT31;67490;52.086;5.122;2023-05-07T03:16:15;18.58;72.00
78212;SHT31;67490;52.086;5.122;2023-05-07T03:19:01;18.58;71.93
78212;SHT31;67490;52.086;5.122;2023-05-07T03:21:45;18.56;71.76
78212;SHT31;67490;52.086;5.122;2023-05-07T03:24:30;18.56;71.48
78212;SHT31;67490;52.086;5.122;2023-05-07T03:27:15;18.51;71.23
78212;SHT31;67490;52.086;5.122;2023-05-07T03:29:59;18.48;71.47
78212;SHT31;67490;52.086;5.122;2023-05-07T03:32:43;18.42;71.05
78212;SHT31;67490;52.086;5.122;2023-05-07T03:35:29;18.34;71.55
78212;SHT31;67490;52.086;5.122;2023-05-07T03:38:14;18.27;71.90
78212;SHT31;67490;52.086;5.122;2023-05-07T03:40:58;18.28;71.82
78212;SHT31;67490;52.086;5.122;2023-05-07T03:43:42;18.28;72.14
78212;SHT31;67490;52.086;5.122;2023-05-07T03:46:26;18.25;72.16
78212;SHT31;67490;52.086;5.122;2023-05-07T03:49:12;18.28;71.83
78212;SHT31;67490;52.086;5.122;2023-05-07T03:51:58;18.30;71.99
78212;SHT31;67490;52.086;5.122;2023-05-07T03:54:42;18.30;71.63
78212;SHT31;67490;52.086;5.122;2023-05-07T03:57:27;18.30;71.31
78212;SHT31;67490;52.086;5.122;2023-05-07T04:00:12;18.18;71.68
78212;SHT31;67490;52.086;5.122;2023-05-07T04:02:56;18.17;71.94
78212;SHT31;67490;52.086;5.122;2023-05-07T04:05:41;18.20;72.26
78212;SHT31;67490;52.086;5.122;2023-05-07T04:08:27;18.25;72.40
78212;SHT31;67490;52.086;5.122;2023-05-07T04:11:12;18.28;71.71
78212;SHT31;67490;52.086;5.122;2023-05-07T04:13:56;18.30;72.16
78212;SHT31;67490;52.086;5.122;2023-05-07T04:16:41;18.37;72.02
78212;SHT31;67490;52.086;5.122;2023-05-07T04:19:26;18.38;72.30
78212;SHT31;67490;52.086;5.122;2023-05-07T04:22:10;18.45;71.32
78212;SHT31;67490;52.086;5.122;2023-05-07T04:24:56;18.45;71.43
78212;SHT31;67490;52.086;5.122;2023-05-07T04:27:40;18.45;71.66
78212;SHT31;67490;52.086;5.122;2023-05-07T04:30:25;18.52;71.55
78212;SHT31;67490;52.086;5.122;2023-05-07T04:33:10;18.53;71.55
78212;SHT31;67490;52.086;5.122;2023-05-07T04:35:54;18.62;70.98
78212;SHT31;67490;52.086;5.122;2023-05-07T04:38:39;18.62;71.00
78212;SHT31;67490;52.086;5.122;2023-05-07T04:41:25;18.62;70.96
78212;SHT31;67490;52.086;5.122;2023-05-07T04:44:09;18.59;70.98
78212;SHT31;67490;52.086;5.122;2023-05-07T04:46:54;18.61;70.78
78212;SHT31;67490;52.086;5.122;2023-05-07T04:49:39;18.58;71.28
78212;SHT31;67490;52.086;5.122;2023-05-07T04:52:23;18.58;71.12
78212;SHT31;67490;52.086;5.122;2023-05-07T04:55:09;18.61;71.23
78212;SHT31;67490;52.086;5.122;2023-05-07T04:57:54;18.62;71.18
78212;SHT31;67490;52.086;5.122;2023-05-07T05:00:39;18.66;70.71
78212;SHT31;67490;52.086;5.122;2023-05-07T05:03:23;18.65;71.04
78212;SHT31;67490;52.086;5.122;2023-05-07T05:06:08;18.71;71.19
78212;SHT31;67490;52.086;5.122;2023-05-07T05:08:53;18.75;70.93
78212;SHT31;67490;52.086;5.122;2023-05-07T05:11:37;18.75;71.17
78212;SHT31;67490;52.086;5.122;2023-05-07T05:14:24;18.79;70.10
78212;SHT31;67490;52.086;5.122;2023-05-07T05:17:08;18.79;69.97
78212;SHT31;67490;52.086;5.122;2023-05-07T05:19:52;18.76;70.33
78212;SHT31;67490;52.086;5.122;2023-05-07T05:22:37;18.75;70.45
78212;SHT31;67490;52.086;5.122;2023-05-07T05:25:21;18.79;70.21
78212;SHT31;67490;52.086;5.122;2023-05-07T05:28:05;18.77;70.54
78212;SHT31;67490;52.086;5.122;2023-05-07T05:30:51;18.73;70.68
78212;SHT31;67490;52.086;5.122;2023-05-07T05:33:36;18.73;70.91
78212;SHT31;67490;52.086;5.122;2023-05-07T05:36:20;18.65;71.09
78212;SHT31;67490;52.086;5.122;2023-05-07T05:39:05;18.51;71.40
78212;SHT31;67490;52.086;5.122;2023-05-07T05:41:49;18.42;71.64
78212;SHT31;67490;52.086;5.122;2023-05-07T05:44:34;18.35;71.92
78212;SHT31;67490;52.086;5.122;2023-05-07T05:47:19;18.30;72.48
78212;SHT31;67490;52.086;5.122;2023-05-07T05:50:05;18.32;72.35
78212;SHT31;67490;52.086;5.122;2023-05-07T05:52:50;18.41;72.57
78212;SHT31;67490;52.086;5.122;2023-05-07T05:55:35;18.53;72.37
78212;SHT31;67490;52.086;5.122;2023-05-07T05:58:19;18.52;72.14
78212;SHT31;67490;52.086;5.122;2023-05-07T06:01:04;18.56;72.18
78212;SHT31;67490;52.086;5.122;2023-05-07T06:03:50;18.61;71.91
78212;SHT31;67490;52.086;5.122;2023-05-07T06:06:35;18.71;71.54
78212;SHT31;67490;52.086;5.122;2023-05-07T06:09:19;18.73;71.19
78212;SHT31;67490;52.086;5.122;2023-05-07T06:12:04;18.79;71.07
78212;SHT31;67490;52.086;5.122;2023-05-07T06:14:49;18.85;70.66
78212;SHT31;67490;52.086;5.122;2023-05-07T06:17:33;18.85;70.86
78212;SHT31;67490;52.086;5.122;2023-05-07T06:20:19;18.88;71.05
78212;SHT31;67490;52.086;5.122;2023-05-07T06:23:04;18.95;71.17
78212;SHT31;67490;52.086;5.122;2023-05-07T06:25:49;19.09;70.70
78212;SHT31;67490;52.086;5.122;2023-05-07T06:28:34;19.17;70.71
78212;SHT31;67490;52.086;5.122;2023-05-07T06:31:21;19.24;70.22
78212;SHT31;67490;52.086;5.122;2023-05-07T06:34:06;19.19;70.04
78212;SHT31;67490;52.086;5.122;2023-05-07T06:36:51;19.13;70.26
78212;SHT31;67490;52.086;5.122;2023-05-07T06:39:36;19.09;70.34
78212;SHT31;67490;52.086;5.122;2023-05-07T06:42:21;19.06;70.79
78212;SHT31;67490;52.086;5.122;2023-05-07T06:45:06;19.03;70.57
78212;SHT31;67490;52.086;5.122;2023-05-07T06:47:50;19.07;70.82
78212;SHT31;67490;52.086;5.122;2023-05-07T06:50:35;19.13;70.51
78212;SHT31;67490;52.086;5.122;2023-05-07T06:53:21;19.19;70.64
78212;SHT31;67490;52.086;5.122;2023-05-07T06:56:05;19.24;70.30
78212;SHT31;67490;52.086;5.122;2023-05-07T06:58:50;19.28;70.03
78212;SHT31;67490;52.086;5.122;2023-05-07T07:01:34;19.26;69.67
78212;SHT31;67490;52.086;5.122;2023-05-07T07:04:18;19.28;69.43
78212;SHT31;67490;52.086;5.122;2023-05-07T07:07:03;19.24;69.92
78212;SHT31;67490;52.086;5.122;2023-05-07T07:09:49;19.31;70.01
78212;SHT31;67490;52.086;5.122;2023-05-07T07:12:33;19.43;69.67
78212;SHT31;67490;52.086;5.122;2023-05-07T07:15:19;19.50;69.61
78212;SHT31;67490;52.086;5.122;2023-05-07T07:18:04;19.70;69.18
78212;SHT31;67490;52.086;5.122;2023-05-07T07:20:49;20.46;67.58
78212;SHT31;67490;52.086;5.122;2023-05-07T07:23:34;20.84;66.53
78212;SHT31;67490;52.086;5.122;2023-05-07T07:26:19;20.97;65.82
78212;SHT31;67490;52.086;5.122;2023-05-07T07:29:03;20.98;65.76
78212;SHT31;67490;52.086;5.122;2023-05-07T07:31:48;20.94;66.09
78212;SHT31;67490;52.086;5.122;2023-05-07T07:34:34;20.90;66.23
78212;SHT31;67490;52.086;5.122;2023-05-07T07:37:19;20.84;66.29
78212;SHT31;67490;52.086;5.122;2023-05-07T07:40:04;20.67;66.53
78212;SHT31;67490;52.086;5.122;2023-05-07T07:42:50;20.57;67.43
78212;SHT31;67490;52.086;5.122;2023-05-07T07:45:34;20.43;67.76
78212;SHT31;67490;52.086;5.122;2023-05-07T07:48:19;20.37;67.81
78212;SHT31;67490;52.086;5.122;2023-05-07T07:51:04;20.22;68.24
78212;SHT31;67490;52.086;5.122;2023-05-07T07:53:48;20.09;68.51
78212;SHT31;67490;52.086;5.122;2023-05-07T07:56:33;20.10;69.18
78212;SHT31;67490;52.086;5.122;2023-05-07T07:59:19;20.10;69.43
78212;SHT31;67490;52.086;5.122;2023-05-07T08:02:04;20.12;69.56
78212;SHT31;67490;52.086;5.122;2023-05-07T08:04:48;20.12;70.32
78212;SHT31;67490;52.086;5.122;2023-05-07T08:07:33;20.10;70.36
78212;SHT31;67490;52.086;5.122;2023-05-07T08:10:18;20.10;70.39
78212;SHT31;67490;52.086;5.122;2023-05-07T08:13:05;20.09;70.43
78212;SHT31;67490;52.086;5.122;2023-05-07T08:15:51;20.02;70.41
78212;SHT31;67490;52.086;5.122;2023-05-07T08:18:36;20.00;71.72
78212;SHT31;67490;52.086;5.122;2023-05-07T08:21:20;20.02;71.71
78212;SHT31;67490;52.086;5.122;2023-05-07T08:24:05;20.04;71.06
78212;SHT31;67490;52.086;5.122;2023-05-07T08:26:50;20.18;71.92
78212;SHT31;67490;52.086;5.122;2023-05-07T08:29:34;20.33;71.35
78212;SHT31;67490;52.086;5.122;2023-05-07T08:32:21;20.49;70.80
78212;SHT31;67490;52.086;5.122;2023-05-07T08:35:06;20.73;69.72
78212;SHT31;67490;52.086;5.122;2023-05-07T08:37:50;20.99;69.48
78212;SHT31;67490;52.086;5.122;2023-05-07T08:40:37;21.22;68.98
78212;SHT31;67490;52.086;5.122;2023-05-07T08:43:26;21.31;67.21
78212;SHT31;67490;52.086;5.122;2023-05-07T08:46:11;21.12;68.34
78212;SHT31;67490;52.086;5.122;2023-05-07T08:49:01;20.99;67.60
78212;SHT31;67490;52.086;5.122;2023-05-07T08:51:46;21.04;67.92
78212;SHT31;67490;52.086;5.122;2023-05-07T08:54:31;21.17;67.52
78212;SHT31;67490;52.086;5.122;2023-05-07T08:57:16;21.28;67.56
78212;SHT31;67490;52.086;5.122;2023-05-07T09:00:01;21.45;67.45
78212;SHT31;67490;52.086;5.122;2023-05-07T09:02:46;21.38;65.81
78212;SHT31;67490;52.086;5.122;2023-05-07T09:05:31;21.35;66.36
78212;SHT31;67490;52.086;5.122;2023-05-07T09:08:16;21.31;66.61
78212;SHT31;67490;52.086;5.122;2023-05-07T09:11:01;21.48;66.83
78212;SHT31;67490;52.086;5.122;2023-05-07T09:13:46;21.49;66.29
78212;SHT31;67490;52.086;5.122;2023-05-07T09:16:30;21.55;67.11
78212;SHT31;67490;52.086;5.122;2023-05-07T09:19:15;21.46;66.63
78212;SHT31;67490;52.086;5.122;2023-05-07T09:22:03;21.57;66.81
78212;SHT31;67490;52.086;5.122;2023-05-07T09:24:49;21.70;66.88
78212;SHT31;67490;52.086;5.122;2023-05-07T09:27:33;21.96;67.01
78212;SHT31;67490;52.086;5.122;2023-05-07T09:30:18;22.08;66.21
78212;SHT31;67490;52.086;5.122;2023-05-07T09:33:03;22.33;64.92
78212;SHT31;67490;52.086;5.122;2023-05-07T09:35:51;22.45;64.54
78212;SHT31;67490;52.086;5.122;2023-05-07T09:38:37;22.44;64.17
78212;SHT31;67490;52.086;5.122;2023-05-07T09:41:22;22.48;64.80
78212;SHT31;67490;52.086;5.122;2023-05-07T09:44:08;22.62;64.28
78212;SHT31;67490;52.086;5.122;2023-05-07T09:46:54;22.79;63.86
78212;SHT31;67490;52.086;5.122;2023-05-07T09:49:40;22.99;64.30
78212;SHT31;67490;52.086;5.122;2023-05-07T09:52:27;23.13;62.60
78212;SHT31;67490;52.086;5.122;2023-05-07T09:55:19;23.30;61.36
78212;SHT31;67490;52.086;5.122;2023-05-07T09:58:05;23.67;60.51
78212;SHT31;67490;52.086;5.122;2023-05-07T10:00:51;23.61;61.11
78212;SHT31;67490;52.086;5.122;2023-05-07T10:03:39;23.40;60.06
78212;SHT31;67490;52.086;5.122;2023-05-07T10:06:25;23.16;60.89
78212;SHT31;67490;52.086;5.122;2023-05-07T10:09:09;23.43;61.33
78212;SHT31;67490;52.086;5.122;2023-05-07T10:11:58;23.68;60.03
78212;SHT31;67490;52.086;5.122;2023-05-07T10:14:45;24.30;59.10
78212;SHT31;67490;52.086;5.122;2023-05-07T10:17:34;24.49;58.43
78212;SHT31;67490;52.086;5.122;2023-05-07T10:20:19;24.29;58.29
78212;SHT31;67490;52.086;5.122;2023-05-07T10:23:05;24.18;58.84
78212;SHT31;67490;52.086;5.122;2023-05-07T10:25:50;24.28;56.44
78212;SHT31;67490;52.086;5.122;2023-05-07T10:28:39;24.66;57.08
78212;SHT31;67490;52.086;5.122;2023-05-07T10:31:50;24.94;54.42
78212;SHT31;67490;52.086;5.122;2023-05-07T10:34:40;25.18;53.94
78212;SHT31;67490;52.086;5.122;2023-05-07T10:37:26;25.42;53.70
78212;SHT31;67490;52.086;5.122;2023-05-07T10:40:12;25.80;52.03
78212;SHT31;67490;52.086;5.122;2023-05-07T10:42:58;26.03;52.82
78212;SHT31;67490;52.086;5.122;2023-05-07T10:46:11;26.16;53.22
78212;SHT31;67490;52.086;5.122;2023-05-07T10:49:08;25.85;51.24
78212;SHT31;67490;52.086;5.122;2023-05-07T10:52:15;25.25;54.04
78212;SHT31;67490;52.086;5.122;2023-05-07T10:55:20;24.86;53.44
78212;SHT31;67490;52.086;5.122;2023-05-07T10:58:26;24.56;55.53
78212;SHT31;67490;52.086;5.122;2023-05-07T11:01:12;24.42;54.05
78212;SHT31;67490;52.086;5.122;2023-05-07T11:04:15;24.28;54.85
78212;SHT31;67490;52.086;5.122;2023-05-07T11:07:26;24.12;55.49
78212;SHT31;67490;52.086;5.122;2023-05-07T11:10:11;24.19;55.34
78212;SHT31;67490;52.086;5.122;2023-05-07T11:12:56;24.33;55.21
78212;SHT31;67490;52.086;5.122;2023-05-07T11:15:45;24.37;56.29
78212;SHT31;67490;52.086;5.122;2023-05-07T11:18:46;24.53;55.87
78212;SHT31;67490;52.086;5.122;2023-05-07T11:21:33;24.59;55.94
78212;SHT31;67490;52.086;5.122;2023-05-07T11:24:18;24.62;55.69
78212;SHT31;67490;52.086;5.122;2023-05-07T11:27:06;24.73;56.00
78212;SHT31;67490;52.086;5.122;2023-05-07T11:29:51;24.71;55.54
78212;SHT31;67490;52.086;5.122;2023-05-07T11:32:35;24.74;54.36
78212;SHT31;67490;52.086;5.122;2023-05-07T11:35:22;24.79;54.60
78212;SHT31;67490;52.086;5.122;2023-05-07T11:38:08;24.81;53.92
78212;SHT31;67490;52.086;5.122;2023-05-07T11:40:54;24.84;54.59
78212;SHT31;67490;52.086;5.122;2023-05-07T11:43:53;24.81;53.65
78212;SHT31;67490;52.086;5.122;2023-05-07T11:46:43;24.60;52.51
78212;SHT31;67490;52.086;5.122;2023-05-07T11:49:28;24.57;53.85
78212;SHT31;67490;52.086;5.122;2023-05-07T11:52:14;24.64;53.95
78212;SHT31;67490;52.086;5.122;2023-05-07T11:55:00;24.63;54.34
78212;SHT31;67490;52.086;5.122;2023-05-07T11:57:45;24.64;54.53
78212;SHT31;67490;52.086;5.122;2023-05-07T12:00:29;24.71;53.60
78212;SHT31;67490;52.086;5.122;2023-05-07T12:03:14;24.67;53.36
78212;SHT31;67490;52.086;5.122;2023-05-07T12:05:59;24.66;54.67
78212;SHT31;67490;52.086;5.122;2023-05-07T12:08:46;24.67;53.93
78212;SHT31;67490;52.086;5.122;2023-05-07T12:11:31;24.69;54.29
78212;SHT31;67490;52.086;5.122;2023-05-07T12:14:15;24.70;54.92
78212;SHT31;67490;52.086;5.122;2023-05-07T12:17:01;24.77;54.52
78212;SHT31;67490;52.086;5.122;2023-05-07T12:19:49;24.77;55.66
78212;SHT31;67490;52.086;5.122;2023-05-07T12:22:35;24.79;55.09
78212;SHT31;67490;52.086;5.122;2023-05-07T12:25:21;24.83;53.42
78212;SHT31;67490;52.086;5.122;2023-05-07T12:28:07;24.90;53.99
78212;SHT31;67490;52.086;5.122;2023-05-07T12:30:52;24.91;54.14
78212;SHT31;67490;52.086;5.122;2023-05-07T12:33:37;25.03;54.60
78212;SHT31;67490;52.086;5.122;2023-05-07T12:36:21;25.00;53.37
78212;SHT31;67490;52.086;5.122;2023-05-07T12:39:06;24.97;53.57
78212;SHT31;67490;52.086;5.122;2023-05-07T12:41:54;25.00;49.99
78212;SHT31;67490;52.086;5.122;2023-05-07T12:44:39;24.90;52.81
78212;SHT31;67490;52.086;5.122;2023-05-07T12:47:23;24.98;53.20
78212;SHT31;67490;52.086;5.122;2023-05-07T12:50:08;25.06;51.28
78212;SHT31;67490;52.086;5.122;2023-05-07T12:52:53;25.10;52.41
78212;SHT31;67490;52.086;5.122;2023-05-07T12:55:42;25.17;50.65
78212;SHT31;67490;52.086;5.122;2023-05-07T12:58:29;25.29;50.09
78212;SHT31;67490;52.086;5.122;2023-05-07T13:01:15;25.28;52.10
78212;SHT31;67490;52.086;5.122;2023-05-07T13:04:03;25.38;50.62
78212;SHT31;67490;52.086;5.122;2023-05-07T13:06:47;25.42;50.60
78212;SHT31;67490;52.086;5.122;2023-05-07T13:09:31;25.32;50.84
78212;SHT31;67490;52.086;5.122;2023-05-07T13:12:16;25.38;51.44
78212;SHT31;67490;52.086;5.122;2023-05-07T13:15:02;25.45;51.38
78212;SHT31;67490;52.086;5.122;2023-05-07T13:17:47;25.46;51.85
78212;SHT31;67490;52.086;5.122;2023-05-07T13:20:31;25.51;49.68
78212;SHT31;67490;52.086;5.122;2023-05-07T13:23:16;25.52;49.31
78212;SHT31;67490;52.086;5.122;2023-05-07T13:26:01;25.53;50.53
78212;SHT31;67490;52.086;5.122;2023-05-07T13:28:46;25.14;51.40
78212;SHT31;67490;52.086;5.122;2023-05-07T13:31:32;25.14;50.64
78212;SHT31;67490;52.086;5.122;2023-05-07T13:34:17;25.18;51.38
78212;SHT31;67490;52.086;5.122;2023-05-07T13:37:02;25.34;51.45
78212;SHT31;67490;52.086;5.122;2023-05-07T13:39:47;25.57;49.37
78212;SHT31;67490;52.086;5.122;2023-05-07T13:42:32;25.70;48.91
78212;SHT31;67490;52.086;5.122;2023-05-07T13:45:17;25.63;48.55
78212;SHT31;67490;52.086;5.122;2023-05-07T13:48:03;25.55;48.91
78212;SHT31;67490;52.086;5.122;2023-05-07T13:50:47;25.46;48.68
78212;SHT31;67490;52.086;5.122;2023-05-07T13:53:32;25.35;48.54
78212;SHT31;67490;52.086;5.122;2023-05-07T13:56:16;25.22;48.67
78212;SHT31;67490;52.086;5.122;2023-05-07T13:59:00;24.86;48.79
78212;SHT31;67490;52.086;5.122;2023-05-07T14:01:45;24.87;49.36
78212;SHT31;67490;52.086;5.122;2023-05-07T14:04:30;25.08;50.46
78212;SHT31;67490;52.086;5.122;2023-05-07T14:07:15;25.25;47.88
78212;SHT31;67490;52.086;5.122;2023-05-07T14:09:59;25.21;48.44
78212;SHT31;67490;52.086;5.122;2023-05-07T14:12:44;25.18;48.34
78212;SHT31;67490;52.086;5.122;2023-05-07T14:15:29;25.18;48.66
78212;SHT31;67490;52.086;5.122;2023-05-07T14:18:13;25.20;48.91
78212;SHT31;67490;52.086;5.122;2023-05-07T14:20:59;25.20;47.22
78212;SHT31;67490;52.086;5.122;2023-05-07T14:23:44;25.24;48.46
78212;SHT31;67490;52.086;5.122;2023-05-07T14:26:29;25.28;48.48
78212;SHT31;67490;52.086;5.122;2023-05-07T14:29:14;25.21;48.32
78212;SHT31;67490;52.086;5.122;2023-05-07T14:31:59;25.04;48.46
78212;SHT31;67490;52.086;5.122;2023-05-07T14:34:44;24.95;48.95
78212;SHT31;67490;52.086;5.122;2023-05-07T14:37:30;24.64;52.24
78212;SHT31;67490;52.086;5.122;2023-05-07T14:40:14;24.02;54.95
78212;SHT31;67490;52.086;5.122;2023-05-07T14:42:59;23.58;56.97
78212;SHT31;67490;52.086;5.122;2023-05-07T14:45:44;23.28;58.23
78212;SHT31;67490;52.086;5.122;2023-05-07T14:48:28;22.98;59.29
78212;SHT31;67490;52.086;5.122;2023-05-07T14:51:13;22.75;60.37
78212;SHT31;67490;52.086;5.122;2023-05-07T14:53:59;22.62;60.84
78212;SHT31;67490;52.086;5.122;2023-05-07T14:56:44;22.58;61.30
78212;SHT31;67490;52.086;5.122;2023-05-07T14:59:29;22.64;61.47
78212;SHT31;67490;52.086;5.122;2023-05-07T15:02:13;22.49;61.47
78212;SHT31;67490;52.086;5.122;2023-05-07T15:04:58;22.28;62.64
78212;SHT31;67490;52.086;5.122;2023-05-07T15:07:43;22.13;65.21
78212;SHT31;67490;52.086;5.122;2023-05-07T15:10:29;21.86;65.24
78212;SHT31;67490;52.086;5.122;2023-05-07T15:13:13;21.69;67.84
78212;SHT31;67490;52.086;5.122;2023-05-07T15:15:58;21.56;68.38
78212;SHT31;67490;52.086;5.122;2023-05-07T15:18:42;21.35;69.74
78212;SHT31;67490;52.086;5.122;2023-05-07T15:21:27;21.19;70.48
78212;SHT31;67490;52.086;5.122;2023-05-07T15:24:11;20.34;72.30
78212;SHT31;67490;52.086;5.122;2023-05-07T15:26:57;20.00;72.64
78212;SHT31;67490;52.086;5.122;2023-05-07T15:29:46;19.99;73.80
78212;SHT31;67490;52.086;5.122;2023-05-07T15:32:31;19.82;74.06
78212;SHT31;67490;52.086;5.122;2023-05-07T15:35:15;19.82;74.53
78212;SHT31;67490;52.086;5.122;2023-05-07T15:37:59;19.78;74.58
78212;SHT31;67490;52.086;5.122;2023-05-07T15:40:45;19.89;74.61
78212;SHT31;67490;52.086;5.122;2023-05-07T15:43:31;20.05;74.99
78212;SHT31;67490;52.086;5.122;2023-05-07T15:46:18;20.18;73.85
78212;SHT31;67490;52.086;5.122;2023-05-07T15:49:02;20.18;72.88
78212;SHT31;67490;52.086;5.122;2023-05-07T15:51:51;20.19;73.55
78212;SHT31;67490;52.086;5.122;2023-05-07T15:54:37;19.65;74.04
78212;SHT31;67490;52.086;5.122;2023-05-07T15:57:23;19.91;74.90
78212;SHT31;67490;52.086;5.122;2023-05-07T16:00:10;19.67;73.72
78212;SHT31;67490;52.086;5.122;2023-05-07T16:02:55;19.30;75.95
78212;SHT31;67490;52.086;5.122;2023-05-07T16:05:40;19.23;75.97
78212;SHT31;67490;52.086;5.122;2023-05-07T16:08:25;19.04;76.02
78212;SHT31;67490;52.086;5.122;2023-05-07T16:11:10;19.24;76.06
78212;SHT31;67490;52.086;5.122;2023-05-07T16:13:54;19.06;74.91
78212;SHT31;67490;52.086;5.122;2023-05-07T16:16:40;19.16;75.88
78212;SHT31;67490;52.086;5.122;2023-05-07T16:19:24;19.49;75.84
78212;SHT31;67490;52.086;5.122;2023-05-07T16:22:09;19.71;75.89
78212;SHT31;67490;52.086;5.122;2023-05-07T16:24:54;19.44;75.53
78212;SHT31;67490;52.086;5.122;2023-05-07T16:27:39;19.51;73.41
78212;SHT31;67490;52.086;5.122;2023-05-07T16:30:23;19.03;74.47
78212;SHT31;67490;52.086;5.122;2023-05-07T16:33:09;18.81;74.82
78212;SHT31;67490;52.086;5.122;2023-05-07T16:35:53;18.95;74.93
78212;SHT31;67490;52.086;5.122;2023-05-07T16:38:38;19.44;75.19
78212;SHT31;67490;52.086;5.122;2023-05-07T16:41:23;19.78;74.15
78212;SHT31;67490;52.086;5.122;2023-05-07T16:44:07;19.81;72.88
78212;SHT31;67490;52.086;5.122;2023-05-07T16:46:52;20.04;73.79
78212;SHT31;67490;52.086;5.122;2023-05-07T16:49:38;20.04;72.92
78212;SHT31;67490;52.086;5.122;2023-05-07T16:52:23;20.16;72.30
78212;SHT31;67490;52.086;5.122;2023-05-07T16:55:07;19.99;73.27
78212;SHT31;67490;52.086;5.122;2023-05-07T16:57:51;20.12;71.44
78212;SHT31;67490;52.086;5.122;2023-05-07T17:00:36;19.72;72.80
78212;SHT31;67490;52.086;5.122;2023-05-07T17:03:21;19.92;73.01
78212;SHT31;67490;52.086;5.122;2023-05-07T17:06:07;20.09;72.12
78212;SHT31;67490;52.086;5.122;2023-05-07T17:08:56;20.20;71.84
78212;SHT31;67490;52.086;5.122;2023-05-07T17:11:41;20.20;72.08
78212;SHT31;67490;52.086;5.122;2023-05-07T17:14:26;20.26;71.58
78212;SHT31;67490;52.086;5.122;2023-05-07T17:17:10;20.28;71.73
78212;SHT31;67490;52.086;5.122;2023-05-07T17:19:55;20.39;71.74
78212;SHT31;67490;52.086;5.122;2023-05-07T17:22:41;20.51;71.57
78212;SHT31;67490;52.086;5.122;2023-05-07T17:25:25;20.56;70.99